Terminal Aerodrome Forecast
Issued by NWS Northern Indiana

Home | Current Version | Previous Version | Text Only | Print | Product List | Glossary Off
Versions: 1 2 3 4 5 6 7 8 9 10 11 12 13 14 15 16 17 18 19 20 21

000
FTUS43 KIWX 211721
TAFFWA
TAF
KFWA 211721Z 2118/2218 19005KT 1/4SM -DZ FG OVC003
     FM221200 17008KT 3/4SM RA BR OVC003
     FM221500 18010G20KT 3SM RA BR OVC020=

USA.gov is the U.S. government's official web portal to all federal, state and local government web resources and services.